createdAt,value
2018-04-27T08:49:30.570Z,58.20
2018-04-27T08:54:27.375Z,58.10
2018-04-27T08:56:55.316Z,59.00
2018-04-27T08:59:23.254Z,57.60
2018-04-27T09:01:51.920Z,57.10
2018-04-27T09:04:19.817Z,56.90
2018-04-27T09:06:47.749Z,57.20
2018-04-27T09:09:15.682Z,57.90
2018-04-27T09:11:43.610Z,57.20
2018-04-27T09:14:11.614Z,57.00
2018-04-27T09:16:39.526Z,55.50
2018-04-27T09:19:07.445Z,55.90
2018-04-27T09:21:35.487Z,55.40
2018-04-27T09:24:03.342Z,54.70
2018-04-27T09:26:31.252Z,55.10
2018-04-27T09:29:01.650Z,54.80
2018-04-27T09:31:30.218Z,54.50
2018-04-27T09:33:58.133Z,55.40
2018-04-27T09:36:26.069Z,55.10
2018-04-27T09:38:55.345Z,54.40
2018-04-27T09:41:23.259Z,55.20
2018-04-27T09:43:51.221Z,54.80
2018-04-27T09:48:55.586Z,53.50
2018-04-27T09:51:23.518Z,53.60
2018-04-27T09:53:51.434Z,54.50
2018-04-27T09:56:19.340Z,53.90
2018-04-27T09:58:47.285Z,54.50
2018-04-27T10:01:15.229Z,53.90
2018-04-27T10:03:43.145Z,54.30
2018-04-27T10:06:11.096Z,53.60
2018-04-27T10:08:39.015Z,53.70
2018-04-27T10:11:06.926Z,52.50
2018-04-27T10:13:34.886Z,53.30
2018-04-27T10:16:02.821Z,51.90
2018-04-27T10:18:30.731Z,51.90
2018-04-27T10:20:59.660Z,51.80
2018-04-27T10:23:27.560Z,52.20
2018-04-27T10:25:56.881Z,51.60
2018-04-27T10:28:24.801Z,52.30
2018-04-27T10:30:52.713Z,50.80
2018-04-27T10:33:20.621Z,52.60
2018-04-27T10:46:54.901Z,52.40
2018-04-27T10:49:22.834Z,51.80
2018-04-27T10:51:50.741Z,51.40
2018-04-27T10:54:18.645Z,50.70
2018-04-27T10:56:46.563Z,51.40
2018-04-27T10:59:14.476Z,50.40
2018-04-27T11:01:42.626Z,51.30
2018-04-27T11:04:10.541Z,51.20
2018-04-27T11:06:38.459Z,50.30
2018-04-27T11:09:06.385Z,49.40
2018-04-27T11:11:34.307Z,49.80
2018-04-27T11:14:02.245Z,49.70
2018-04-27T11:16:39.243Z,50.00
2018-04-27T11:19:07.189Z,48.60
2018-04-27T11:24:06.997Z,48.80
2018-04-27T11:26:37.601Z,48.90
2018-04-27T11:29:09.698Z,48.70
2018-04-27T11:31:42.188Z,48.20
2018-04-27T11:34:12.457Z,49.10
2018-04-27T11:36:40.499Z,48.40
2018-04-27T11:39:08.433Z,48.50
2018-04-27T11:41:38.624Z,48.30
2018-04-27T11:44:07.371Z,48.60
2018-04-27T11:52:12.019Z,48.00
2018-04-27T11:54:40.664Z,47.70
2018-04-27T11:57:08.572Z,45.40
2018-04-27T11:59:36.495Z,43.50
2018-04-27T12:02:04.413Z,41.60
2018-04-27T12:04:33.282Z,40.20
2018-04-27T12:07:01.191Z,40.00
2018-04-27T12:15:07.988Z,38.10
2018-04-27T12:17:40.005Z,37.00
2018-04-27T12:20:08.198Z,37.10
2018-04-27T12:22:36.108Z,35.90
2018-04-27T12:25:04.036Z,36.80
2018-04-27T12:27:33.710Z,37.30
2018-04-27T12:30:03.243Z,37.30
2018-04-27T12:32:31.303Z,38.20
2018-04-27T12:34:59.215Z,39.00
2018-04-27T12:37:27.735Z,38.80
2018-04-27T12:39:55.668Z,39.00
2018-04-27T12:42:32.545Z,40.40
2018-04-27T12:45:01.102Z,40.40
2018-04-27T12:47:29.058Z,40.00
2018-04-27T12:49:57.180Z,40.30
2018-04-27T12:52:37.891Z,40.20
2018-04-27T12:55:30.451Z,41.40
2018-04-27T13:10:40.603Z,39.40
2018-04-27T13:13:08.561Z,38.50
2018-04-27T13:15:36.465Z,36.50
2018-04-27T13:18:08.456Z,35.90
2018-04-27T13:20:44.972Z,35.00
2018-04-27T13:23:19.406Z,34.80
2018-04-27T13:25:47.929Z,36.00
2018-04-27T13:28:15.845Z,36.60
2018-04-27T13:30:43.783Z,38.70
2018-04-27T13:33:11.681Z,39.70
2018-04-27T13:35:41.755Z,41.60
2018-04-27T13:38:09.669Z,42.60
2018-04-27T13:40:37.584Z,44.10
2018-04-27T13:43:09.826Z,45.00
2018-04-27T13:45:37.942Z,44.10
2018-04-27T13:48:05.844Z,44.60
2018-04-27T13:50:33.806Z,45.20
2018-04-27T13:53:01.731Z,44.60
2018-04-27T13:55:30.294Z,43.40
2018-04-27T13:57:58.242Z,42.30
2018-04-27T14:00:26.161Z,43.00
2018-04-27T14:02:54.160Z,42.60
2018-04-27T14:05:22.053Z,41.10
2018-04-27T14:07:49.970Z,41.00
2018-04-27T14:10:17.882Z,43.10
2018-04-27T14:12:45.814Z,41.70
2018-04-27T14:15:13.733Z,42.70
2018-04-27T14:17:41.651Z,43.50
2018-04-27T14:20:09.588Z,43.50
2018-04-27T14:22:59.933Z,43.80
2018-04-27T14:35:08.942Z,44.80
2018-04-27T14:37:36.877Z,43.30
2018-04-27T14:40:04.781Z,41.80
2018-04-27T14:42:32.721Z,41.00
2018-04-27T14:45:00.662Z,40.80
2018-04-27T14:47:28.558Z,39.10
2018-04-27T14:49:56.707Z,36.00
2018-04-27T14:52:24.654Z,35.20
2018-04-27T14:54:52.572Z,36.00
2018-04-27T14:57:20.519Z,36.60
2018-04-27T14:59:48.773Z,35.90
2018-04-27T15:02:16.819Z,34.20
2018-04-27T15:04:44.732Z,34.90
2018-04-27T15:07:13.359Z,37.30
2018-04-27T15:09:41.509Z,39.70
2018-04-27T15:12:09.504Z,40.70
2018-04-27T15:14:37.349Z,41.10
2018-04-27T15:17:05.338Z,41.60
2018-04-27T15:19:33.270Z,41.40
2018-04-27T15:22:06.028Z,41.10
2018-04-27T15:24:33.942Z,37.90
2018-04-27T15:27:01.850Z,36.80
2018-04-27T15:29:29.783Z,38.10
2018-04-27T15:32:00.552Z,39.00
2018-04-27T15:34:28.549Z,40.10
2018-04-27T15:36:56.457Z,40.60
2018-04-27T15:39:24.377Z,41.60
2018-04-27T15:41:52.305Z,41.00
2018-04-27T15:44:20.236Z,39.70
2018-04-27T15:46:48.172Z,38.50
2018-04-27T15:49:16.311Z,37.90
2018-04-27T15:51:44.594Z,38.50
2018-04-27T15:54:12.505Z,39.80
2018-04-27T15:56:40.418Z,41.70
2018-04-27T15:59:08.345Z,41.90
2018-04-27T16:01:36.261Z,41.90
2018-04-27T16:04:04.167Z,43.00
2018-04-27T16:06:32.097Z,43.80
2018-04-27T16:09:00.009Z,44.20
2018-04-27T16:11:31.577Z,45.50
2018-04-27T16:13:59.487Z,44.70
2018-04-27T16:16:30.241Z,44.40
2018-04-27T16:18:59.148Z,44.70
2018-04-27T16:21:27.148Z,45.30
2018-04-27T16:23:55.180Z,45.10
2018-04-27T16:26:30.803Z,45.30
2018-04-27T16:29:00.038Z,44.90
2018-04-27T16:31:27.961Z,45.60
2018-04-27T16:33:55.893Z,46.20
2018-04-27T16:36:23.806Z,45.20
2018-04-27T16:38:57.301Z,45.90
2018-04-27T16:41:25.227Z,46.80
2018-04-27T16:43:53.647Z,46.80
2018-04-27T16:46:21.551Z,47.20
2018-04-27T16:48:49.473Z,47.50
2018-04-27T16:51:30.757Z,47.90
2018-04-27T16:53:59.981Z,47.50
2018-04-27T16:56:27.991Z,47.20
2018-04-27T16:58:55.970Z,47.20
2018-04-27T17:01:24.034Z,46.90
2018-04-27T17:03:51.959Z,46.80
2018-04-27T17:06:19.898Z,48.10
2018-04-27T17:08:48.020Z,48.20
2018-04-27T17:11:18.722Z,48.20
2018-04-27T17:13:46.677Z,48.50
2018-04-27T17:16:14.593Z,48.90
2018-04-27T17:18:42.495Z,49.20
2018-04-27T17:21:10.422Z,49.10
2018-04-27T17:23:38.329Z,49.20
2018-04-27T17:26:06.235Z,49.30
2018-04-27T17:28:34.180Z,49.60
2018-04-27T17:31:02.114Z,49.50
2018-04-27T17:33:30.034Z,50.10
2018-04-27T17:35:57.987Z,50.60
2018-04-27T17:38:25.895Z,50.60
2018-04-27T17:43:22.753Z,51.50
2018-04-27T17:45:50.663Z,51.50
2018-04-27T17:48:18.567Z,51.60
2018-04-27T17:50:46.506Z,52.60
2018-04-27T17:53:14.419Z,52.00
2018-04-27T17:55:42.342Z,52.50
2018-04-27T17:58:10.296Z,52.50
2018-04-27T18:00:38.217Z,52.90
2018-04-27T18:03:06.134Z,53.00
2018-04-27T18:05:35.380Z,53.30
2018-04-27T18:08:03.296Z,53.50
2018-04-27T18:10:31.261Z,53.50
2018-04-27T18:12:59.190Z,54.70
2018-04-27T18:17:55.958Z,54.50
2018-04-27T18:20:23.901Z,54.40
2018-04-27T18:22:51.834Z,54.30
2018-04-27T18:25:19.812Z,54.80
2018-04-27T18:27:47.771Z,55.00
2018-04-27T18:30:15.723Z,54.90
2018-04-27T18:32:43.705Z,55.30
2018-04-27T18:35:11.617Z,55.40
2018-04-27T18:40:08.437Z,56.00
2018-04-27T18:42:36.464Z,55.80
2018-04-27T18:45:04.415Z,55.90
2018-04-27T18:50:52.305Z,56.50
2018-04-27T19:08:46.123Z,57.80
2018-04-27T19:11:14.077Z,57.60
2018-04-27T19:13:42.067Z,58.00
2018-04-27T19:16:10.029Z,57.70
2018-04-27T19:23:38.634Z,57.90
2018-04-27T19:26:08.433Z,58.20
2018-04-27T19:28:37.602Z,58.10
2018-04-27T19:31:05.554Z,58.40
2018-04-27T19:33:34.025Z,58.20
2018-04-27T19:36:02.421Z,58.10
2018-04-27T19:38:30.352Z,58.20
2018-04-27T19:40:59.594Z,58.00
2018-04-27T19:43:27.521Z,58.20
2018-04-27T19:45:55.472Z,58.60
2018-04-27T19:48:23.434Z,58.70
2018-04-27T19:50:52.218Z,58.60
2018-04-27T20:08:15.644Z,56.60
2018-04-27T20:18:24.457Z,56.60
2018-04-27T20:23:23.354Z,57.70
2018-04-27T20:28:24.595Z,57.40
2018-04-27T20:33:22.135Z,57.60
2018-04-27T20:38:30.062Z,57.60
2018-04-27T20:43:27.849Z,58.10
2018-04-27T20:48:25.613Z,57.80
2018-04-27T20:53:28.862Z,58.40
2018-04-27T20:58:26.681Z,59.10
2018-04-27T21:03:24.021Z,59.20
2018-04-27T21:08:21.765Z,59.10
2018-04-27T21:13:19.173Z,59.20
2018-04-27T21:15:47.134Z,59.90
2018-04-27T21:18:16.547Z,60.00
2018-04-27T21:20:44.458Z,59.00
2018-04-27T21:23:12.396Z,60.70
2018-04-27T21:25:40.320Z,60.30
2018-04-27T21:31:07.301Z,59.60
2018-04-27T21:36:04.905Z,60.10
2018-04-27T21:38:45.560Z,61.00
2018-04-27T21:41:22.298Z,59.80
2018-04-27T21:43:51.079Z,60.20
2018-04-27T21:46:20.608Z,61.40
2018-04-27T22:01:22.229Z,59.90
2018-04-27T22:03:51.110Z,60.30
2018-04-27T22:06:19.075Z,59.90
2018-04-27T22:08:50.779Z,60.20
2018-04-27T22:11:25.462Z,60.50
2018-04-27T22:13:53.386Z,60.20
2018-04-27T22:16:23.090Z,60.20
2018-04-27T22:18:51.032Z,60.40
2018-04-27T22:21:18.994Z,60.40
2018-04-27T22:23:46.919Z,60.50
2018-04-27T22:28:55.017Z,60.20
2018-04-27T22:31:22.953Z,60.80
2018-04-27T22:39:30.475Z,61.00
2018-04-27T22:41:58.422Z,60.90
2018-04-27T22:44:38.111Z,60.80
2018-04-27T22:47:06.062Z,61.00
2018-04-27T22:49:33.976Z,61.00
2018-04-27T22:52:01.892Z,61.50
2018-04-27T22:54:31.749Z,61.60
2018-04-27T22:57:00.386Z,61.60
2018-04-27T22:59:28.296Z,61.40
2018-04-27T23:01:57.035Z,61.50
2018-04-27T23:04:25.780Z,61.90
2018-04-27T23:06:53.696Z,61.80
2018-04-27T23:09:21.618Z,62.00
2018-04-27T23:11:49.533Z,62.00
2018-04-27T23:14:38.035Z,62.30
2018-04-27T23:17:06.789Z,62.40
2018-04-27T23:19:34.712Z,62.10
2018-04-27T23:24:36.742Z,62.80
2018-04-27T23:27:04.677Z,62.80
2018-04-27T23:29:32.581Z,63.10
2018-04-27T23:32:00.499Z,62.70
2018-04-27T23:34:28.422Z,62.70
2018-04-27T23:36:58.253Z,62.70
2018-04-27T23:39:26.173Z,62.80
2018-04-27T23:41:54.110Z,62.60
2018-04-27T23:44:22.009Z,62.90
2018-04-27T23:46:49.907Z,63.30
2018-04-27T23:51:48.410Z,63.10
2018-04-27T23:54:16.326Z,63.50
2018-04-27T23:56:47.046Z,63.50
2018-04-27T23:59:16.805Z,63.50
